Barrow, Barrow Airport (PABR)

NameBarrow Airport
CityBarrow
CountryUnited States
ICAOPABR
IATABRW
Altitude16 m
CoordinatesGoogle Map
Live Air TrafficLiveATC.net
METARPABR 171953Z 07023KT 3/4SM R07/4500V6000FT -SN BR FEW010 OVC015 M03/M04 A2969
2018-10-17 19:53:00 Wind: East-Northeast (70°) 11.83 m/s - Visibility: 6437.36 m - Weather: Light Snow / Mist - Temperature: -3 °C - Dew point: -4 °C - Humidity: 92.9% - Pressure: 1005.42 hPa

Sorry, no flights used the airport in this database.